sensor_id;sensor_type;location;lat;lon;timestamp;pressure;altitude;pressure_sealevel;temperature;humidity
11692;BME280;33659;42.672;23.354;2024-03-08T00:00:05;67903.69;;;8.59;75.15
11692;BME280;33659;42.672;23.354;2024-03-08T00:02:37;67894.50;;;8.51;75.27
11692;BME280;33659;42.672;23.354;2024-03-08T00:05:05;67897.72;;;8.54;75.23
11692;BME280;33659;42.672;23.354;2024-03-08T00:07:33;67908.53;;;8.64;75.50
11692;BME280;33659;42.672;23.354;2024-03-08T00:10:01;67897.19;;;8.53;75.67
11692;BME280;33659;42.672;23.354;2024-03-08T00:12:29;67896.13;;;8.52;75.68
11692;BME280;33659;42.672;23.354;2024-03-08T00:14:56;67899.88;;;8.56;75.01
11692;BME280;33659;42.672;23.354;2024-03-08T00:17:24;67897.72;;;8.54;74.53
11692;BME280;33659;42.672;23.354;2024-03-08T00:19:52;67887.88;;;8.42;74.23
11692;BME280;33659;42.672;23.354;2024-03-08T00:22:19;67876.66;;;8.34;74.92
11692;BME280;33659;42.672;23.354;2024-03-08T00:24:47;67867.16;;;8.30;75.19
11692;BME280;33659;42.672;23.354;2024-03-08T00:27:15;67873.53;;;8.33;75.05
11692;BME280;33659;42.672;23.354;2024-03-08T00:29:43;67874.50;;;8.32;75.12
11692;BME280;33659;42.672;23.354;2024-03-08T00:32:10;67876.09;;;8.33;75.14
11692;BME280;33659;42.672;23.354;2024-03-08T00:34:37;67870.84;;;8.31;75.37
11692;BME280;33659;42.672;23.354;2024-03-08T00:37:04;67863.25;;;8.24;75.14
11692;BME280;33659;42.672;23.354;2024-03-08T00:39:31;67864.22;;;8.22;75.66
11692;BME280;33659;42.672;23.354;2024-03-08T00:41:58;67852.47;;;8.13;75.69
11692;BME280;33659;42.672;23.354;2024-03-08T00:44:24;67849.09;;;8.08;76.19
11692;BME280;33659;42.672;23.354;2024-03-08T00:46:52;67836.81;;;7.99;76.63
11692;BME280;33659;42.672;23.354;2024-03-08T00:49:19;67836.03;;;7.93;76.79
11692;BME280;33659;42.672;23.354;2024-03-08T00:51:47;67836.69;;;7.96;76.89
11692;BME280;33659;42.672;23.354;2024-03-08T00:54:13;67841.00;;;8.00;76.83
11692;BME280;33659;42.672;23.354;2024-03-08T00:56:41;67847.47;;;8.06;76.66
11692;BME280;33659;42.672;23.354;2024-03-08T00:59:08;67846.41;;;8.05;76.05
11692;BME280;33659;42.672;23.354;2024-03-08T01:01:35;67844.78;;;8.04;76.27
11692;BME280;33659;42.672;23.354;2024-03-08T01:04:03;67839.38;;;7.99;76.02
11692;BME280;33659;42.672;23.354;2024-03-08T01:06:29;67841.00;;;8.00;76.57
11692;BME280;33659;42.672;23.354;2024-03-08T01:08:57;67839.38;;;7.99;76.63
11692;BME280;33659;42.672;23.354;2024-03-08T01:11:23;67841.00;;;8.00;76.20
11692;BME280;33659;42.672;23.354;2024-03-08T01:13:50;67829.13;;;7.89;76.32
11692;BME280;33659;42.672;23.354;2024-03-08T01:16:18;67828.03;;;7.88;76.77
11692;BME280;33659;42.672;23.354;2024-03-08T01:18:46;67822.75;;;7.85;76.65
11692;BME280;33659;42.672;23.354;2024-03-08T01:21:14;67821.56;;;7.82;76.63
11692;BME280;33659;42.672;23.354;2024-03-08T01:23:41;67815.63;;;7.76;77.23
11692;BME280;33659;42.672;23.354;2024-03-08T01:26:08;67817.78;;;7.78;77.51
11692;BME280;33659;42.672;23.354;2024-03-08T01:28:35;67816.16;;;7.77;77.75
11692;BME280;33659;42.672;23.354;2024-03-08T01:31:02;67822.63;;;7.83;77.65
11692;BME280;33659;42.672;23.354;2024-03-08T01:33:29;67825.88;;;7.86;77.61
11692;BME280;33659;42.672;23.354;2024-03-08T01:35:57;67822.63;;;7.83;77.32
11692;BME280;33659;42.672;23.354;2024-03-08T01:38:25;67827.50;;;7.87;76.81
11692;BME280;33659;42.672;23.354;2024-03-08T01:40:51;67830.72;;;7.91;76.82
11692;BME280;33659;42.672;23.354;2024-03-08T01:43:19;67831.28;;;7.91;76.87
11692;BME280;33659;42.672;23.354;2024-03-08T01:45:46;67832.38;;;7.92;76.53
11692;BME280;33659;42.672;23.354;2024-03-08T01:48:13;67831.81;;;7.92;76.57
11692;BME280;33659;42.672;23.354;2024-03-08T01:50:40;67838.81;;;7.98;76.73
11692;BME280;33659;42.672;23.354;2024-03-08T01:53:07;67838.81;;;7.98;76.62
11692;BME280;33659;42.672;23.354;2024-03-08T01:55:37;67839.78;;;7.97;76.03
11692;BME280;33659;42.672;23.354;2024-03-08T01:58:04;67837.22;;;7.97;75.84
11692;BME280;33659;42.672;23.354;2024-03-08T02:00:32;67838.72;;;7.96;75.66
11692;BME280;33659;42.672;23.354;2024-03-08T02:03:00;67843.81;;;8.05;75.65
11692;BME280;33659;42.672;23.354;2024-03-08T02:05:28;67850.72;;;8.09;75.43
11692;BME280;33659;42.672;23.354;2024-03-08T02:07:54;67849.75;;;8.11;75.46
11692;BME280;33659;42.672;23.354;2024-03-08T02:10:22;67856.13;;;8.14;74.93
11692;BME280;33659;42.672;23.354;2024-03-08T02:12:50;67846.94;;;8.06;74.74
11692;BME280;33659;42.672;23.354;2024-03-08T02:15:17;67861.53;;;8.20;74.49
11692;BME280;33659;42.672;23.354;2024-03-08T02:17:45;67866.94;;;8.25;74.13
11692;BME280;33659;42.672;23.354;2024-03-08T02:20:11;67860.44;;;8.19;74.65
11692;BME280;33659;42.672;23.354;2024-03-08T02:22:40;67869.63;;;8.27;74.21
11692;BME280;33659;42.672;23.354;2024-03-08T02:25:08;67862.06;;;8.20;73.91
11692;BME280;33659;42.672;23.354;2024-03-08T02:27:35;67880.44;;;8.37;73.39
11692;BME280;33659;42.672;23.354;2024-03-08T02:30:02;67880.44;;;8.37;72.76
11692;BME280;33659;42.672;23.354;2024-03-08T02:32:30;67873.41;;;8.31;72.29
11692;BME280;33659;42.672;23.354;2024-03-08T02:34:58;67868.13;;;8.28;71.64
11692;BME280;33659;42.672;23.354;2024-03-08T02:37:25;67868.00;;;8.26;72.45
11692;BME280;33659;42.672;23.354;2024-03-08T02:39:55;67860.44;;;8.19;72.37
11692;BME280;33659;42.672;23.354;2024-03-08T02:42:22;67849.63;;;8.08;72.85
11692;BME280;33659;42.672;23.354;2024-03-08T02:44:48;67845.31;;;8.04;73.23
11692;BME280;33659;42.672;23.354;2024-03-08T02:47:15;67845.31;;;8.04;72.05
11692;BME280;33659;42.672;23.354;2024-03-08T02:49:42;67839.38;;;7.99;73.11
11692;BME280;33659;42.672;23.354;2024-03-08T02:52:08;67843.16;;;8.02;73.10
11692;BME280;33659;42.672;23.354;2024-03-08T02:54:36;67831.28;;;7.91;72.57
11692;BME280;33659;42.672;23.354;2024-03-08T02:57:04;67829.66;;;7.90;72.12
11692;BME280;33659;42.672;23.354;2024-03-08T02:59:32;67827.50;;;7.87;72.36
11692;BME280;33659;42.672;23.354;2024-03-08T03:01:59;67828.03;;;7.88;71.74
11692;BME280;33659;42.672;23.354;2024-03-08T03:04:26;67824.78;;;7.85;70.17
11692;BME280;33659;42.672;23.354;2024-03-08T03:06:53;67825.75;;;7.83;68.81
11692;BME280;33659;42.672;23.354;2024-03-08T03:09:20;67818.44;;;7.81;68.72
11692;BME280;33659;42.672;23.354;2024-03-08T03:11:53;67818.31;;;7.79;68.03
11692;BME280;33659;42.672;23.354;2024-03-08T03:14:21;67818.31;;;7.79;68.24
11692;BME280;33659;42.672;23.354;2024-03-08T03:16:48;67818.97;;;7.82;68.14
11692;BME280;33659;42.672;23.354;2024-03-08T03:19:15;67824.25;;;7.84;67.70
11692;BME280;33659;42.672;23.354;2024-03-08T03:21:42;67827.50;;;7.87;67.71
11692;BME280;33659;42.672;23.354;2024-03-08T03:24:09;67829.78;;;7.92;67.24
11692;BME280;33659;42.672;23.354;2024-03-08T03:26:37;67842.06;;;8.01;66.58
11692;BME280;33659;42.672;23.354;2024-03-08T03:29:06;67837.22;;;7.97;66.04
11692;BME280;33659;42.672;23.354;2024-03-08T03:31:35;67842.06;;;8.01;66.45
11692;BME280;33659;42.672;23.354;2024-03-08T03:34:02;67841.53;;;8.01;66.36
11692;BME280;33659;42.672;23.354;2024-03-08T03:36:29;67839.38;;;7.99;66.59
11692;BME280;33659;42.672;23.354;2024-03-08T03:38:56;67846.41;;;8.05;66.15
11692;BME280;33659;42.672;23.354;2024-03-08T03:41:31;67845.31;;;8.04;66.33
11692;BME280;33659;42.672;23.354;2024-03-08T03:43:57;67846.41;;;8.05;66.92
11692;BME280;33659;42.672;23.354;2024-03-08T03:46:24;67835.59;;;7.95;66.73
11692;BME280;33659;42.672;23.354;2024-03-08T03:48:53;67830.72;;;7.91;66.61
11692;BME280;33659;42.672;23.354;2024-03-08T03:51:20;67836.13;;;7.96;66.98
11692;BME280;33659;42.672;23.354;2024-03-08T03:53:47;67837.75;;;7.97;66.64
11692;BME280;33659;42.672;23.354;2024-03-08T03:56:14;67842.06;;;8.01;66.43
11692;BME280;33659;42.672;23.354;2024-03-08T03:58:41;67842.63;;;8.02;66.28
11692;BME280;33659;42.672;23.354;2024-03-08T04:01:08;67841.66;;;8.03;66.28
11692;BME280;33659;42.672;23.354;2024-03-08T04:03:35;67842.63;;;8.02;66.24
11692;BME280;33659;42.672;23.354;2024-03-08T04:06:03;67836.91;;;8.01;66.86
11692;BME280;33659;42.672;23.354;2024-03-08T04:08:30;67841.00;;;8.00;66.71
11692;BME280;33659;42.672;23.354;2024-03-08T04:10:59;67838.81;;;7.98;67.05
11692;BME280;33659;42.672;23.354;2024-03-08T04:13:26;67842.06;;;8.01;66.77
11692;BME280;33659;42.672;23.354;2024-03-08T04:15:53;67843.16;;;8.02;66.81
11692;BME280;33659;42.672;23.354;2024-03-08T04:18:20;67837.88;;;8.00;66.59
11692;BME280;33659;42.672;23.354;2024-03-08T04:20:46;67842.06;;;8.01;66.41
11692;BME280;33659;42.672;23.354;2024-03-08T04:23:15;67836.25;;;7.98;66.47
11692;BME280;33659;42.672;23.354;2024-03-08T04:25:43;67835.72;;;7.98;66.96
11692;BME280;33659;42.672;23.354;2024-03-08T04:28:09;67834.09;;;7.96;66.99
11692;BME280;33659;42.672;23.354;2024-03-08T04:30:37;67830.44;;;7.95;67.13
11692;BME280;33659;42.672;23.354;2024-03-08T04:33:05;67826.97;;;7.87;67.37
11692;BME280;33659;42.672;23.354;2024-03-08T04:35:31;67822.09;;;7.82;67.32
11692;BME280;33659;42.672;23.354;2024-03-08T04:37:58;67822.63;;;7.83;67.20
11692;BME280;33659;42.672;23.354;2024-03-08T04:40:26;67816.69;;;7.77;67.30
11692;BME280;33659;42.672;23.354;2024-03-08T04:42:53;67820.47;;;7.81;67.17
11692;BME280;33659;42.672;23.354;2024-03-08T04:45:20;67821.13;;;7.84;67.05
11692;BME280;33659;42.672;23.354;2024-03-08T04:47:47;67822.63;;;7.83;67.05
11692;BME280;33659;42.672;23.354;2024-03-08T04:50:13;67817.38;;;7.80;67.24
11692;BME280;33659;42.672;23.354;2024-03-08T04:52:40;67811.81;;;7.73;67.76
11692;BME280;33659;42.672;23.354;2024-03-08T04:55:07;67806.03;;;7.70;68.32
11692;BME280;33659;42.672;23.354;2024-03-08T04:57:36;67811.81;;;7.73;68.67
11692;BME280;33659;42.672;23.354;2024-03-08T05:00:03;67813.47;;;7.74;68.44
11692;BME280;33659;42.672;23.354;2024-03-08T05:02:35;67806.03;;;7.70;68.37
11692;BME280;33659;42.672;23.354;2024-03-08T05:05:04;67815.63;;;7.76;68.32
11692;BME280;33659;42.672;23.354;2024-03-08T05:07:32;67821.56;;;7.82;68.57
11692;BME280;33659;42.672;23.354;2024-03-08T05:09:59;67826.44;;;7.86;68.28
11692;BME280;33659;42.672;23.354;2024-03-08T05:12:25;67832.38;;;7.92;68.22
11692;BME280;33659;42.672;23.354;2024-03-08T05:14:53;67836.69;;;7.96;68.57
11692;BME280;33659;42.672;23.354;2024-03-08T05:17:20;67835.06;;;7.95;68.82
11692;BME280;33659;42.672;23.354;2024-03-08T05:19:49;67830.72;;;7.91;68.81
11692;BME280;33659;42.672;23.354;2024-03-08T05:22:16;67830.88;;;7.93;69.38
11692;BME280;33659;42.672;23.354;2024-03-08T05:24:42;67836.69;;;7.96;69.98
11692;BME280;33659;42.672;23.354;2024-03-08T05:27:09;67845.97;;;8.07;69.86
11692;BME280;33659;42.672;23.354;2024-03-08T05:29:36;67859.34;;;8.18;69.15
11692;BME280;33659;42.672;23.354;2024-03-08T05:32:04;67866.38;;;8.24;69.43
11692;BME280;33659;42.672;23.354;2024-03-08T05:34:32;67864.34;;;8.25;68.37
11692;BME280;33659;42.672;23.354;2024-03-08T05:36:59;67871.78;;;8.29;68.41
11692;BME280;33659;42.672;23.354;2024-03-08T05:39:26;67875.56;;;8.33;67.96
11692;BME280;33659;42.672;23.354;2024-03-08T05:41:53;67880.44;;;8.37;67.39
11692;BME280;33659;42.672;23.354;2024-03-08T05:44:21;67886.38;;;8.43;67.97
11692;BME280;33659;42.672;23.354;2024-03-08T05:46:48;67896.13;;;8.52;68.46
11692;BME280;33659;42.672;23.354;2024-03-08T05:49:17;67900.44;;;8.56;68.38
11692;BME280;33659;42.672;23.354;2024-03-08T05:51:44;67908.00;;;8.63;68.94
11692;BME280;33659;42.672;23.354;2024-03-08T05:54:13;67913.41;;;8.68;68.62
11692;BME280;33659;42.672;23.354;2024-03-08T05:56:40;67906.91;;;8.62;69.05
11692;BME280;33659;42.672;23.354;2024-03-08T05:59:07;67920.41;;;8.75;69.24
11692;BME280;33659;42.672;23.354;2024-03-08T06:01:34;67912.44;;;8.70;68.35
11692;BME280;33659;42.672;23.354;2024-03-08T06:04:02;67909.63;;;8.65;68.49
11692;BME280;33659;42.672;23.354;2024-03-08T06:06:31;67911.34;;;8.69;68.99
11692;BME280;33659;42.672;23.354;2024-03-08T06:08:57;67918.81;;;8.74;68.29
11692;BME280;33659;42.672;23.354;2024-03-08T06:11:25;67921.09;;;8.78;67.40
11692;BME280;33659;42.672;23.354;2024-03-08T06:13:53;67914.06;;;8.72;67.66
11692;BME280;33659;42.672;23.354;2024-03-08T06:16:25;67913.81;;;8.66;67.62
11692;BME280;33659;42.672;23.354;2024-03-08T06:18:54;67891.25;;;8.48;68.38
11692;BME280;33659;42.672;23.354;2024-03-08T06:21:22;67911.34;;;8.69;68.75
11692;BME280;33659;42.672;23.354;2024-03-08T06:23:53;67917.72;;;8.73;68.75
11692;BME280;33659;42.672;23.354;2024-03-08T06:26:22;67923.13;;;8.78;68.27
11692;BME280;33659;42.672;23.354;2024-03-08T06:28:49;67923.78;;;8.81;68.05
11692;BME280;33659;42.672;23.354;2024-03-08T06:31:16;67931.78;;;8.86;67.28
11692;BME280;33659;42.672;23.354;2024-03-08T06:33:43;67933.94;;;8.88;67.79
11692;BME280;33659;42.672;23.354;2024-03-08T06:36:10;67936.09;;;8.90;66.64
11692;BME280;33659;42.672;23.354;2024-03-08T06:38:39;67932.84;;;8.87;66.97
11692;BME280;33659;42.672;23.354;2024-03-08T06:41:09;67937.72;;;8.91;65.75
11692;BME280;33659;42.672;23.354;2024-03-08T06:43:40;67913.41;;;8.68;64.27
11692;BME280;33659;42.672;23.354;2024-03-08T06:46:07;67899.88;;;8.56;65.13
11692;BME280;33659;42.672;23.354;2024-03-08T06:48:34;67878.81;;;8.36;64.42
11692;BME280;33659;42.672;23.354;2024-03-08T06:51:03;67836.81;;;7.99;64.62
11692;BME280;33659;42.672;23.354;2024-03-08T06:53:30;67848.56;;;8.07;64.45
11692;BME280;33659;42.672;23.354;2024-03-08T06:55:57;67828.16;;;7.91;64.49
11692;BME280;33659;42.672;23.354;2024-03-08T06:58:25;67851.91;;;8.13;64.54
11692;BME280;33659;42.672;23.354;2024-03-08T07:00:53;67859.34;;;8.18;64.53
11692;BME280;33659;42.672;23.354;2024-03-08T07:03:23;67857.31;;;8.18;64.67
11692;BME280;33659;42.672;23.354;2024-03-08T07:05:52;67831.28;;;7.91;65.09
11692;BME280;33659;42.672;23.354;2024-03-08T07:08:19;67857.31;;;8.18;64.71
11692;BME280;33659;42.672;23.354;2024-03-08T07:13:34;67859.34;;;8.18;64.70
11692;BME280;33659;42.672;23.354;2024-03-08T07:16:01;67856.13;;;8.14;65.04
11692;BME280;33659;42.672;23.354;2024-03-08T07:18:27;67860.03;;;8.21;64.75
11692;BME280;33659;42.672;23.354;2024-03-08T07:20:55;67856.13;;;8.14;64.65
11692;BME280;33659;42.672;23.354;2024-03-08T07:23:22;67847.59;;;8.09;64.91
11692;BME280;33659;42.672;23.354;2024-03-08T07:26:02;67852.88;;;8.11;64.60
11692;BME280;33659;42.672;23.354;2024-03-08T07:28:29;67838.81;;;7.98;64.79
11692;BME280;33659;42.672;23.354;2024-03-08T07:30:58;67840.47;;;8.00;64.88
11692;BME280;33659;42.672;23.354;2024-03-08T07:33:38;67844.78;;;8.04;65.15
11692;BME280;33659;42.672;23.354;2024-03-08T07:36:05;67835.06;;;7.95;65.14
11692;BME280;33659;42.672;23.354;2024-03-08T07:38:31;67831.28;;;7.91;65.86
11692;BME280;33659;42.672;23.354;2024-03-08T07:40:58;67821.03;;;7.81;65.86
11692;BME280;33659;42.672;23.354;2024-03-08T07:43:25;67822.09;;;7.82;65.87
11692;BME280;33659;42.672;23.354;2024-03-08T07:45:51;67818.31;;;7.79;65.98
11692;BME280;33659;42.672;23.354;2024-03-08T07:48:21;67818.97;;;7.82;66.32
11692;BME280;33659;42.672;23.354;2024-03-08T07:50:48;67832.38;;;7.92;66.17
11692;BME280;33659;42.672;23.354;2024-03-08T07:53:15;67842.63;;;8.02;66.54
11692;BME280;33659;42.672;23.354;2024-03-08T07:55:42;67850.84;;;8.12;66.24
11692;BME280;33659;42.672;23.354;2024-03-08T07:58:10;67857.72;;;8.16;66.40
11692;BME280;33659;42.672;23.354;2024-03-08T08:00:37;67858.28;;;8.17;65.96
11692;BME280;33659;42.672;23.354;2024-03-08T08:03:04;67856.66;;;8.15;65.37
11692;BME280;33659;42.672;23.354;2024-03-08T08:05:32;67851.25;;;8.10;65.66
11692;BME280;33659;42.672;23.354;2024-03-08T08:08:01;67857.88;;;8.19;65.22
11692;BME280;33659;42.672;23.354;2024-03-08T08:10:28;67854.63;;;8.15;65.23
11692;BME280;33659;42.672;23.354;2024-03-08T08:12:55;67854.63;;;8.15;65.20
11692;BME280;33659;42.672;23.354;2024-03-08T08:15:22;67859.91;;;8.18;64.88
11692;BME280;33659;42.672;23.354;2024-03-08T08:17:49;67873.41;;;8.31;64.98
11692;BME280;33659;42.672;23.354;2024-03-08T08:20:17;67883.16;;;8.40;64.95
11692;BME280;33659;42.672;23.354;2024-03-08T08:22:45;67881.00;;;8.38;64.60
11692;BME280;33659;42.672;23.354;2024-03-08T08:25:13;67907.56;;;8.65;63.81
11692;BME280;33659;42.672;23.354;2024-03-08T08:27:41;67922.06;;;8.77;63.33
11692;BME280;33659;42.672;23.354;2024-03-08T08:30:08;67936.63;;;8.90;62.75
11692;BME280;33659;42.672;23.354;2024-03-08T08:32:36;67941.38;;;8.92;62.38
11692;BME280;33659;42.672;23.354;2024-03-08T08:35:05;67943.22;;;8.99;62.32
11692;BME280;33659;42.672;23.354;2024-03-08T08:37:33;67952.31;;;9.05;61.94
11692;BME280;33659;42.672;23.354;2024-03-08T08:40:03;67965.28;;;9.17;60.91
11692;BME280;33659;42.672;23.354;2024-03-08T08:42:34;67964.84;;;9.19;60.23
11692;BME280;33659;42.672;23.354;2024-03-08T08:45:01;67956.63;;;9.09;60.06
11692;BME280;33659;42.672;23.354;2024-03-08T08:47:29;67962.59;;;9.15;60.09
11692;BME280;33659;42.672;23.354;2024-03-08T08:49:56;67977.19;;;9.29;59.52
11692;BME280;33659;42.672;23.354;2024-03-08T08:52:23;67978.25;;;9.30;59.37
11692;BME280;33659;42.672;23.354;2024-03-08T08:54:49;67986.25;;;9.35;59.45
11692;BME280;33659;42.672;23.354;2024-03-08T08:57:17;67981.50;;;9.33;59.68
11692;BME280;33659;42.672;23.354;2024-03-08T08:59:45;67984.75;;;9.36;59.69
11692;BME280;33659;42.672;23.354;2024-03-08T09:02:12;67986.34;;;9.37;58.87
11692;BME280;33659;42.672;23.354;2024-03-08T09:04:42;67986.91;;;9.38;59.18
11692;BME280;33659;42.672;23.354;2024-03-08T09:07:08;67998.78;;;9.49;58.80
11692;BME280;33659;42.672;23.354;2024-03-08T09:09:35;68012.84;;;9.62;58.08
11692;BME280;33659;42.672;23.354;2024-03-08T09:12:02;68034.47;;;9.83;57.62
11692;BME280;33659;42.672;23.354;2024-03-08T09:14:30;68053.97;;;10.01;57.46
11692;BME280;33659;42.672;23.354;2024-03-08T09:16:56;68061.53;;;10.08;57.03
11692;BME280;33659;42.672;23.354;2024-03-08T09:19:24;68077.75;;;10.23;56.67
11692;BME280;33659;42.672;23.354;2024-03-08T09:21:51;68096.16;;;10.41;55.94
11692;BME280;33659;42.672;23.354;2024-03-08T09:24:18;68110.22;;;10.54;55.40
11692;BME280;33659;42.672;23.354;2024-03-08T09:26:44;68128.63;;;10.71;54.88
11692;BME280;33659;42.672;23.354;2024-03-08T09:29:11;68133.81;;;10.71;55.04
11692;BME280;33659;42.672;23.354;2024-03-08T09:31:39;68144.88;;;10.87;55.10
11692;BME280;33659;42.672;23.354;2024-03-08T09:34:06;68161.97;;;10.98;55.18
11692;BME280;33659;42.672;23.354;2024-03-08T09:36:33;68171.94;;;11.12;55.01
11692;BME280;33659;42.672;23.354;2024-03-08T09:39:00;68167.63;;;11.08;54.90
11692;BME280;33659;42.672;23.354;2024-03-08T09:41:27;68161.75;;;11.05;54.52
11692;BME280;33659;42.672;23.354;2024-03-08T09:43:55;68163.28;;;11.04;54.55
11692;BME280;33659;42.672;23.354;2024-03-08T09:46:25;68156.09;;;10.95;55.19
11692;BME280;33659;42.672;23.354;2024-03-08T09:48:53;68148.66;;;10.90;54.96
11692;BME280;33659;42.672;23.354;2024-03-08T09:51:21;68143.25;;;10.85;55.06
11692;BME280;33659;42.672;23.354;2024-03-08T09:53:52;68134.06;;;10.76;54.50
11692;BME280;33659;42.672;23.354;2024-03-08T09:56:19;68126.47;;;10.69;55.15
11692;BME280;33659;42.672;23.354;2024-03-08T09:58:46;68125.91;;;10.69;54.68
11692;BME280;33659;42.672;23.354;2024-03-08T10:01:40;68126.47;;;10.69;55.90
11692;BME280;33659;42.672;23.354;2024-03-08T10:04:08;68128.09;;;10.71;55.31
11692;BME280;33659;42.672;23.354;2024-03-08T10:06:35;68123.75;;;10.67;55.45
11692;BME280;33659;42.672;23.354;2024-03-08T10:09:02;68143.78;;;10.85;54.23
11692;BME280;33659;42.672;23.354;2024-03-08T10:11:31;68169.78;;;11.10;53.73
11692;BME280;33659;42.672;23.354;2024-03-08T10:13:59;68189.13;;;11.26;53.44
11692;BME280;33659;42.672;23.354;2024-03-08T10:16:27;68192.50;;;11.31;53.24
11692;BME280;33659;42.672;23.354;2024-03-08T10:18:56;68205.41;;;11.41;53.30
11692;BME280;33659;42.672;23.354;2024-03-08T10:21:24;68203.88;;;11.42;52.89
11692;BME280;33659;42.672;23.354;2024-03-08T10:23:51;68192.09;;;11.33;53.09
11692;BME280;33659;42.672;23.354;2024-03-08T10:26:18;68186.00;;;11.25;53.15
11692;BME280;33659;42.672;23.354;2024-03-08T10:28:47;68190.34;;;11.29;53.36
11692;BME280;33659;42.672;23.354;2024-03-08T10:31:14;68198.91;;;11.35;52.10
11692;BME280;33659;42.672;23.354;2024-03-08T10:33:41;68201.16;;;11.39;52.66
11692;BME280;33659;42.672;23.354;2024-03-08T10:36:08;68208.75;;;11.47;53.42
11692;BME280;33659;42.672;23.354;2024-03-08T10:38:37;68218.50;;;11.56;52.40
11692;BME280;33659;42.672;23.354;2024-03-08T10:41:06;68227.06;;;11.61;52.31
11692;BME280;33659;42.672;23.354;2024-03-08T10:43:52;68230.81;;;11.65;52.62
11692;BME280;33659;42.672;23.354;2024-03-08T10:46:30;68247.22;;;11.83;51.87
11692;BME280;33659;42.672;23.354;2024-03-08T10:49:03;68242.75;;;11.76;51.85
11692;BME280;33659;42.672;23.354;2024-03-08T10:51:35;68248.19;;;11.81;51.50
11692;BME280;33659;42.672;23.354;2024-03-08T10:54:06;68240.16;;;11.76;51.42
11692;BME280;33659;42.672;23.354;2024-03-08T10:56:34;68222.84;;;11.60;51.50
11692;BME280;33659;42.672;23.354;2024-03-08T10:59:01;68189.25;;;11.28;52.50
11692;BME280;33659;42.672;23.354;2024-03-08T11:01:29;68183.31;;;11.23;52.47
11692;BME280;33659;42.672;23.354;2024-03-08T11:03:56;68186.53;;;11.26;52.46
11692;BME280;33659;42.672;23.354;2024-03-08T11:06:31;68187.63;;;11.27;52.30
11692;BME280;33659;42.672;23.354;2024-03-08T11:12:19;68185.47;;;11.25;52.17
11692;BME280;33659;42.672;23.354;2024-03-08T11:14:51;68186.44;;;11.23;53.80
11692;BME280;33659;42.672;23.354;2024-03-08T11:17:26;68184.91;;;11.24;53.80
11692;BME280;33659;42.672;23.354;2024-03-08T11:19:55;68190.88;;;11.30;52.60
11692;BME280;33659;42.672;23.354;2024-03-08T11:22:28;68226.06;;;11.63;51.68
11692;BME280;33659;42.672;23.354;2024-03-08T11:25:01;68272.00;;;12.04;51.05
11692;BME280;33659;42.672;23.354;2024-03-08T11:27:31;68319.91;;;12.54;50.28
11692;BME280;33659;42.672;23.354;2024-03-08T11:30:02;68383.13;;;13.08;48.66
11692;BME280;33659;42.672;23.354;2024-03-08T11:32:37;68434.22;;;13.59;46.97
11692;BME280;33659;42.672;23.354;2024-03-08T11:35:06;68480.22;;;13.99;45.78
11692;BME280;33659;42.672;23.354;2024-03-08T11:37:34;68524.69;;;14.41;45.46
11692;BME280;33659;42.672;23.354;2024-03-08T11:40:11;68553.47;;;14.68;43.30
11692;BME280;33659;42.672;23.354;2024-03-08T11:42:44;68556.66;;;14.69;43.02
11692;BME280;33659;42.672;23.354;2024-03-08T11:45:12;68551.84;;;14.67;43.94
11692;BME280;33659;42.672;23.354;2024-03-08T11:47:39;68544.25;;;14.59;43.31
11692;BME280;33659;42.672;23.354;2024-03-08T11:50:10;68557.72;;;14.70;43.10
11692;BME280;33659;42.672;23.354;2024-03-08T11:52:37;68563.25;;;14.77;42.42
11692;BME280;33659;42.672;23.354;2024-03-08T11:55:06;68559.47;;;14.74;42.32
11692;BME280;33659;42.672;23.354;2024-03-08T11:57:33;68538.41;;;14.56;42.11
11692;BME280;33659;42.672;23.354;2024-03-08T12:00:00;68524.16;;;14.41;42.45
11692;BME280;33659;42.672;23.354;2024-03-08T12:02:32;68487.38;;;14.08;42.60
11692;BME280;33659;42.672;23.354;2024-03-08T12:05:00;68445.50;;;13.67;42.85
11692;BME280;33659;42.672;23.354;2024-03-08T12:07:28;68417.84;;;13.41;44.44
11692;BME280;33659;42.672;23.354;2024-03-08T12:10:18;68436.38;;;13.61;44.03
11692;BME280;33659;42.672;23.354;2024-03-08T12:12:48;68483.59;;;14.05;43.06
11692;BME280;33659;42.672;23.354;2024-03-08T12:15:17;68515.03;;;14.34;43.00
11692;BME280;33659;42.672;23.354;2024-03-08T12:17:44;68519.28;;;14.36;42.59
11692;BME280;33659;42.672;23.354;2024-03-08T12:20:15;68549.69;;;14.65;42.50
11692;BME280;33659;42.672;23.354;2024-03-08T12:22:42;68584.44;;;14.97;42.21
11692;BME280;33659;42.672;23.354;2024-03-08T12:25:11;68610.50;;;15.22;42.68
11692;BME280;33659;42.672;23.354;2024-03-08T12:27:39;68651.22;;;15.60;40.92
11692;BME280;33659;42.672;23.354;2024-03-08T12:30:18;68679.94;;;15.84;40.68
11692;BME280;33659;42.672;23.354;2024-03-08T12:32:48;68702.84;;;16.08;39.55
11692;BME280;33659;42.672;23.354;2024-03-08T12:35:17;68709.38;;;16.14;38.73
11692;BME280;33659;42.672;23.354;2024-03-08T12:37:44;68672.44;;;15.80;38.60
11692;BME280;33659;42.672;23.354;2024-03-08T12:40:11;68638.72;;;15.48;39.97
11692;BME280;33659;42.672;23.354;2024-03-08T12:42:43;68653.41;;;15.62;40.54
11692;BME280;33659;42.672;23.354;2024-03-08T12:45:13;68678.94;;;15.86;40.50
11692;BME280;33659;42.672;23.354;2024-03-08T12:47:39;68677.88;;;15.85;39.12
11692;BME280;33659;42.672;23.354;2024-03-08T12:50:08;68641.44;;;15.51;39.93
11692;BME280;33659;42.672;23.354;2024-03-08T12:52:35;68613.09;;;15.22;39.87
11692;BME280;33659;42.672;23.354;2024-03-08T12:55:02;68601.81;;;15.13;40.19
11692;BME280;33659;42.672;23.354;2024-03-08T12:57:32;68627.31;;;15.37;39.98
11692;BME280;33659;42.672;23.354;2024-03-08T13:00:01;68650.81;;;15.62;39.30
11692;BME280;33659;42.672;23.354;2024-03-08T13:02:29;68680.47;;;15.85;39.16
11692;BME280;33659;42.672;23.354;2024-03-08T13:04:57;68695.16;;;15.98;39.48
11692;BME280;33659;42.672;23.354;2024-03-08T13:07:25;68703.28;;;16.06;38.95